createdAt,value
2017-05-16T00:01:39.141Z,3.10
2017-05-16T00:04:07.368Z,2.80
2017-05-16T00:06:36.660Z,3.00
2017-05-16T00:09:04.900Z,3.76
2017-05-16T00:11:33.125Z,4.38
2017-05-16T00:14:01.384Z,2.80
2017-05-16T00:16:29.750Z,3.80
2017-05-16T00:18:57.974Z,3.10
2017-05-16T00:21:26.985Z,2.70
2017-05-16T00:23:55.220Z,3.78
2017-05-16T00:26:23.523Z,3.86
2017-05-16T00:28:51.814Z,3.27
2017-05-16T00:31:20.073Z,3.60
2017-05-16T00:33:49.071Z,4.63
2017-05-16T00:36:17.304Z,5.77
2017-05-16T00:38:45.665Z,3.32
2017-05-16T00:41:13.883Z,3.67
2017-05-16T00:43:42.854Z,4.00
2017-05-16T00:46:11.186Z,4.48
2017-05-16T00:48:39.407Z,4.67
2017-05-16T00:51:07.724Z,5.48
2017-05-16T00:53:35.990Z,3.46
2017-05-16T00:56:04.988Z,3.52
2017-05-16T00:58:33.257Z,4.35
2017-05-16T01:01:02.680Z,4.88
2017-05-16T01:03:31.032Z,4.42
2017-05-16T01:06:00.000Z,4.23
2017-05-16T01:08:28.302Z,4.30
2017-05-16T01:10:57.284Z,4.15
2017-05-16T01:13:26.285Z,4.25
2017-05-16T01:15:55.281Z,3.77
2017-05-16T01:18:24.253Z,4.38
2017-05-16T01:20:52.552Z,4.35
2017-05-16T01:23:20.824Z,4.15
2017-05-16T01:25:49.095Z,3.98
2017-05-16T01:28:18.102Z,4.33
2017-05-16T01:30:46.328Z,3.68
2017-05-16T01:33:14.558Z,6.57
2017-05-16T01:35:42.815Z,7.08
2017-05-16T01:38:11.795Z,6.24
2017-05-16T01:40:40.787Z,4.47
2017-05-16T01:43:09.757Z,5.80
2017-05-16T01:45:37.985Z,5.43
2017-05-16T01:48:06.238Z,5.70
2017-05-16T01:50:35.223Z,5.20
2017-05-16T01:53:04.228Z,4.48
2017-05-16T01:55:32.504Z,5.16
2017-05-16T01:58:00.798Z,4.48
2017-05-16T02:00:29.028Z,5.64
2017-05-16T02:02:57.265Z,4.93
2017-05-16T02:05:25.595Z,4.98
2017-05-16T02:07:53.885Z,4.87
2017-05-16T02:10:22.249Z,7.42
2017-05-16T02:12:51.248Z,5.98
2017-05-16T02:15:20.253Z,5.98
2017-05-16T02:17:48.524Z,5.62
2017-05-16T02:20:16.804Z,5.88
2017-05-16T02:22:45.092Z,5.70
2017-05-16T02:25:13.374Z,6.53
2017-05-16T02:27:41.612Z,5.98
2017-05-16T02:30:10.712Z,5.87
2017-05-16T02:32:38.948Z,6.85
2017-05-16T02:35:07.176Z,5.83
2017-05-16T02:37:35.417Z,7.05
2017-05-16T02:40:04.389Z,8.20
2017-05-16T02:42:32.667Z,6.65
2017-05-16T02:45:00.972Z,5.70
2017-05-16T02:47:29.932Z,5.43
2017-05-16T02:49:58.171Z,6.07
2017-05-16T02:52:26.404Z,4.92
2017-05-16T02:54:55.397Z,6.27
2017-05-16T02:57:24.406Z,5.35
2017-05-16T02:59:52.628Z,6.25
2017-05-16T03:02:20.961Z,6.02
2017-05-16T03:04:49.185Z,6.27
2017-05-16T03:07:17.457Z,7.05
2017-05-16T03:09:45.776Z,6.27
2017-05-16T03:12:14.753Z,6.30
2017-05-16T03:14:43.768Z,6.37
2017-05-16T03:17:12.012Z,7.36
2017-05-16T03:19:40.424Z,6.17
2017-05-16T03:22:08.692Z,6.00
2017-05-16T03:24:37.649Z,5.93
2017-05-16T03:27:05.920Z,5.63
2017-05-16T03:29:34.146Z,5.85
2017-05-16T03:32:02.513Z,5.60
2017-05-16T03:34:30.784Z,5.60
2017-05-16T03:36:59.787Z,7.97
2017-05-16T03:39:28.035Z,6.70
2017-05-16T03:41:57.789Z,6.15
2017-05-16T03:44:26.147Z,5.75
2017-05-16T03:46:54.525Z,6.18
2017-05-16T03:49:22.760Z,6.28
2017-05-16T03:51:50.996Z,6.70
2017-05-16T03:54:19.312Z,5.87
2017-05-16T03:56:47.583Z,7.58
2017-05-16T03:59:15.816Z,6.33
2017-05-16T04:01:44.049Z,6.14
2017-05-16T04:04:12.292Z,6.00
2017-05-16T04:06:40.617Z,6.58
2017-05-16T04:09:08.896Z,7.22
2017-05-16T04:11:37.120Z,7.78
2017-05-16T04:14:05.448Z,6.70
2017-05-16T04:16:33.684Z,7.13
2017-05-16T04:19:02.092Z,6.82
2017-05-16T04:21:31.080Z,7.10
2017-05-16T04:24:00.080Z,15.62
2017-05-16T04:26:28.302Z,7.50
2017-05-16T04:28:56.532Z,7.83
2017-05-16T04:31:24.761Z,9.07
2017-05-16T04:33:53.077Z,8.20
2017-05-16T04:36:21.415Z,8.98
2017-05-16T04:38:49.736Z,7.78
2017-05-16T04:41:18.842Z,7.58
2017-05-16T04:43:47.064Z,8.80
2017-05-16T04:46:15.486Z,7.85
2017-05-16T04:48:44.444Z,9.55
2017-05-16T04:51:12.752Z,8.75
2017-05-16T04:53:41.082Z,8.90
2017-05-16T04:56:09.304Z,9.40
2017-05-16T04:58:38.294Z,8.58
2017-05-16T05:01:07.256Z,9.10
2017-05-16T05:03:35.563Z,8.93
2017-05-16T05:06:03.796Z,8.84
2017-05-16T05:08:32.064Z,9.28
2017-05-16T05:11:00.622Z,10.68
2017-05-16T05:13:28.848Z,9.68
2017-05-16T05:15:57.089Z,18.82
2017-05-16T05:18:25.344Z,9.83
2017-05-16T05:20:53.589Z,10.32
2017-05-16T05:23:22.599Z,11.77
2017-05-16T05:25:50.831Z,11.82
2017-05-16T05:28:19.236Z,10.72
2017-05-16T05:30:48.384Z,10.38
2017-05-16T05:33:16.713Z,9.65
2017-05-16T05:35:44.977Z,10.50
2017-05-16T05:38:13.977Z,11.92
2017-05-16T05:40:42.399Z,10.73
2017-05-16T05:43:10.780Z,13.10
2017-05-16T05:45:39.008Z,10.36
2017-05-16T05:48:08.106Z,9.40
2017-05-16T05:50:36.344Z,10.53
2017-05-16T05:53:04.628Z,12.07
2017-05-16T05:55:32.881Z,10.85
2017-05-16T05:58:01.111Z,11.77
2017-05-16T06:00:29.385Z,12.47
2017-05-16T06:02:57.678Z,10.75
2017-05-16T06:05:26.664Z,10.78
2017-05-16T06:07:54.917Z,12.80
2017-05-16T06:10:23.900Z,14.32
2017-05-16T06:12:52.201Z,12.55
2017-05-16T06:15:20.462Z,11.14
2017-05-16T06:17:49.432Z,12.02
2017-05-16T06:20:17.709Z,14.22
2017-05-16T06:22:46.005Z,12.90
2017-05-16T06:25:14.275Z,11.65
2017-05-16T06:27:43.390Z,11.68
2017-05-16T06:30:11.652Z,11.20
2017-05-16T06:32:40.627Z,12.08
2017-05-16T06:35:09.596Z,11.33
2017-05-16T06:37:37.863Z,10.10
2017-05-16T06:40:06.182Z,10.27
2017-05-16T06:42:35.176Z,9.83
2017-05-16T06:45:04.150Z,10.22
2017-05-16T06:47:32.462Z,11.32
2017-05-16T06:50:00.711Z,10.70
2017-05-16T06:52:29.723Z,11.17
2017-05-16T06:54:58.084Z,9.72
2017-05-16T06:57:27.095Z,11.07
2017-05-16T06:59:55.360Z,11.28
2017-05-16T07:02:23.653Z,13.00
2017-05-16T07:04:51.916Z,10.76
2017-05-16T07:07:20.181Z,10.42
2017-05-16T07:09:49.181Z,10.14
2017-05-16T07:12:17.460Z,9.32
2017-05-16T07:14:45.739Z,9.03
2017-05-16T07:17:13.988Z,10.98
2017-05-16T07:19:43.418Z,9.97
2017-05-16T07:22:11.766Z,10.60
2017-05-16T07:24:40.013Z,10.43
2017-05-16T07:27:08.379Z,11.00
2017-05-16T07:29:36.703Z,9.96
2017-05-16T07:32:05.672Z,11.17
2017-05-16T07:34:33.920Z,11.45
2017-05-16T07:37:02.255Z,11.98
2017-05-16T07:39:30.527Z,11.53
2017-05-16T07:41:59.515Z,11.88
2017-05-16T07:44:28.514Z,11.03
2017-05-16T07:46:56.785Z,11.95
2017-05-16T07:49:25.788Z,11.75
2017-05-16T07:51:54.165Z,12.13
2017-05-16T07:54:22.391Z,12.10
2017-05-16T07:56:50.624Z,11.80
2017-05-16T07:59:18.864Z,11.45
2017-05-16T08:01:47.842Z,11.60
2017-05-16T08:04:16.241Z,11.70
2017-05-16T08:06:45.392Z,12.65
2017-05-16T08:09:13.627Z,13.37
2017-05-16T08:11:41.888Z,13.00
2017-05-16T08:14:10.291Z,13.27
2017-05-16T08:16:38.541Z,13.53
2017-05-16T08:19:07.549Z,13.13
2017-05-16T08:21:35.775Z,23.55
2017-05-16T08:24:04.024Z,14.45
2017-05-16T08:26:32.370Z,15.00
2017-05-16T08:29:00.688Z,12.80
2017-05-16T08:31:28.961Z,14.10
2017-05-16T08:33:57.192Z,14.67
2017-05-16T08:36:26.231Z,12.93
2017-05-16T08:38:54.477Z,12.67
2017-05-16T08:41:22.739Z,13.55
2017-05-16T08:43:51.769Z,14.05
2017-05-16T08:46:19.993Z,15.38
2017-05-16T08:48:49.005Z,14.65
2017-05-16T08:51:17.268Z,14.12
2017-05-16T08:53:46.312Z,14.43
2017-05-16T08:56:14.791Z,15.33
2017-05-16T08:58:43.031Z,14.45
2017-05-16T09:01:11.339Z,15.93
2017-05-16T09:03:39.580Z,15.33
2017-05-16T09:06:07.820Z,17.65
2017-05-16T09:08:36.089Z,16.20
2017-05-16T09:11:04.347Z,18.15
2017-05-16T09:13:32.615Z,17.02
2017-05-16T09:16:00.872Z,15.55
2017-05-16T09:18:29.252Z,16.07
2017-05-16T09:20:57.528Z,16.80
2017-05-16T09:23:25.759Z,19.53
2017-05-16T09:25:54.740Z,18.90
2017-05-16T09:28:23.050Z,20.27
2017-05-16T09:30:51.331Z,23.25
2017-05-16T09:33:19.584Z,21.70
2017-05-16T09:35:48.580Z,22.78
2017-05-16T09:38:17.564Z,21.13
2017-05-16T09:40:46.567Z,21.43
2017-05-16T09:43:15.708Z,19.77
2017-05-16T09:45:44.080Z,21.77
2017-05-16T09:48:12.315Z,21.48
2017-05-16T09:50:41.308Z,21.35
2017-05-16T09:53:10.384Z,22.33
2017-05-16T09:55:39.392Z,21.20
2017-05-16T09:58:08.533Z,21.47
2017-05-16T10:00:36.772Z,22.60
2017-05-16T10:03:05.020Z,21.18
2017-05-16T10:05:33.291Z,20.80
2017-05-16T10:08:01.524Z,20.90
2017-05-16T10:10:30.114Z,20.60
2017-05-16T10:12:58.352Z,19.72
2017-05-16T10:15:26.600Z,20.10
2017-05-16T10:17:55.590Z,18.95
2017-05-16T10:20:23.815Z,17.58
2017-05-16T10:22:52.073Z,20.48
2017-05-16T10:25:20.384Z,20.58
2017-05-16T10:27:48.620Z,18.98
2017-05-16T10:30:16.880Z,18.52
2017-05-16T10:32:45.877Z,19.95
2017-05-16T10:37:43.280Z,21.18
2017-05-16T10:40:11.535Z,21.90
2017-05-16T10:42:39.819Z,21.92
2017-05-16T10:45:08.080Z,24.17
2017-05-16T10:47:36.456Z,27.50
2017-05-16T10:50:05.423Z,22.13
2017-05-16T10:52:33.658Z,21.88
2017-05-16T10:55:01.895Z,21.10
2017-05-16T10:57:30.931Z,20.23
2017-05-16T10:59:59.266Z,20.58
2017-05-16T11:02:28.255Z,20.28
2017-05-16T11:04:56.578Z,20.35
2017-05-16T11:07:24.825Z,18.98
2017-05-16T11:09:53.124Z,18.75
2017-05-16T11:12:21.470Z,18.38
2017-05-16T11:14:49.702Z,18.42
2017-05-16T11:17:17.944Z,19.40
2017-05-16T11:19:46.304Z,20.03
2017-05-16T11:22:14.535Z,19.34
2017-05-16T11:24:42.984Z,18.77
2017-05-16T11:27:11.317Z,19.13
2017-05-16T11:29:40.305Z,20.70
2017-05-16T11:32:08.577Z,19.25
2017-05-16T11:34:36.821Z,20.45
2017-05-16T11:37:05.081Z,18.62
2017-05-16T11:39:33.404Z,20.17
2017-05-16T11:42:02.392Z,19.18
2017-05-16T11:44:31.391Z,21.27
2017-05-16T11:46:59.667Z,20.22
2017-05-16T11:49:28.682Z,20.82
2017-05-16T11:51:56.911Z,23.58
2017-05-16T11:54:25.259Z,21.68
2017-05-16T11:56:53.508Z,20.52
2017-05-16T11:59:21.741Z,20.80
2017-05-16T12:01:50.036Z,22.07
2017-05-16T12:04:19.012Z,18.07
2017-05-16T12:06:48.028Z,18.60
2017-05-16T12:09:16.317Z,17.33
2017-05-16T12:11:44.552Z,17.74
2017-05-16T12:14:12.807Z,19.57
2017-05-16T12:16:41.164Z,18.22
2017-05-16T12:19:09.412Z,17.05
2017-05-16T12:21:37.679Z,18.18
2017-05-16T12:24:05.908Z,16.88
2017-05-16T12:26:34.159Z,16.62
2017-05-16T12:29:02.503Z,19.47
2017-05-16T12:31:31.495Z,19.50
2017-05-16T12:33:59.741Z,17.30
2017-05-16T12:36:28.054Z,16.32
2017-05-16T12:38:56.437Z,15.63
2017-05-16T12:41:24.709Z,18.58
2017-05-16T12:43:52.945Z,17.45
2017-05-16T12:46:21.207Z,17.60
2017-05-16T12:48:49.528Z,18.37
2017-05-16T12:51:17.808Z,20.23
2017-05-16T12:53:46.072Z,19.02
2017-05-16T12:56:15.051Z,18.10
2017-05-16T12:58:43.289Z,18.87
2017-05-16T13:01:11.552Z,18.33
2017-05-16T13:03:39.783Z,19.18
2017-05-16T13:06:08.784Z,17.93
2017-05-16T13:08:37.015Z,19.10
2017-05-16T13:11:05.297Z,21.07
2017-05-16T13:13:33.604Z,17.78
2017-05-16T13:16:02.632Z,17.87
2017-05-16T13:18:30.894Z,18.50
2017-05-16T13:20:59.128Z,17.20
2017-05-16T13:23:27.541Z,18.97
2017-05-16T13:25:55.804Z,19.23
2017-05-16T13:28:24.784Z,19.73
2017-05-16T13:30:53.096Z,18.23
2017-05-16T13:33:21.319Z,22.72
2017-05-16T13:35:49.628Z,19.28
2017-05-16T13:38:17.955Z,19.75
2017-05-16T13:40:46.322Z,19.85
2017-05-16T13:43:14.639Z,18.88
2017-05-16T13:45:42.878Z,19.23
2017-05-16T13:48:11.133Z,18.65
2017-05-16T13:50:39.530Z,18.90
2017-05-16T13:53:07.769Z,21.17
2017-05-16T13:55:36.020Z,18.48
2017-05-16T13:58:05.035Z,19.93
2017-05-16T14:00:33.412Z,20.78
2017-05-16T14:03:01.662Z,19.80
2017-05-16T14:05:30.668Z,21.20
2017-05-16T14:07:58.937Z,20.10
2017-05-16T14:10:27.915Z,19.13
2017-05-16T14:12:56.366Z,20.65
2017-05-16T14:15:24.629Z,19.28
2017-05-16T14:17:52.864Z,19.45
2017-05-16T14:20:21.845Z,18.98
2017-05-16T14:22:50.843Z,18.63
2017-05-16T14:25:19.835Z,18.90
2017-05-16T14:27:48.160Z,18.98
2017-05-16T14:30:16.597Z,17.92
2017-05-16T14:32:44.856Z,18.03
2017-05-16T14:35:13.867Z,17.28
2017-05-16T14:37:42.904Z,17.62
2017-05-16T14:40:11.143Z,18.02
2017-05-16T14:42:39.621Z,18.58
2017-05-16T14:45:07.957Z,19.13
2017-05-16T14:47:36.215Z,19.14
2017-05-16T14:50:04.475Z,17.67
2017-05-16T14:52:32.700Z,17.23
2017-05-16T14:55:01.797Z,17.00
2017-05-16T14:57:30.808Z,17.38
2017-05-16T14:59:59.120Z,19.50
2017-05-16T15:02:27.377Z,18.63
2017-05-16T15:04:56.272Z,19.48
2017-05-16T15:07:24.541Z,20.43
2017-05-16T15:09:52.787Z,19.02
2017-05-16T15:12:21.997Z,18.42
2017-05-16T15:14:50.256Z,19.40
2017-05-16T15:17:19.414Z,20.83
2017-05-16T15:19:47.735Z,20.50
2017-05-16T15:22:16.729Z,20.30
2017-05-16T15:24:45.012Z,19.07
2017-05-16T15:27:13.272Z,21.05
2017-05-16T15:29:42.253Z,19.35
2017-05-16T15:32:10.534Z,17.02
2017-05-16T15:34:39.553Z,17.27
2017-05-16T15:37:07.799Z,16.55
2017-05-16T15:39:36.792Z,18.90
2017-05-16T15:42:05.041Z,18.42
2017-05-16T15:44:33.452Z,16.85
2017-05-16T15:47:01.780Z,15.53
2017-05-16T15:49:30.013Z,16.58
2017-05-16T15:51:59.015Z,17.57
2017-05-16T15:54:27.325Z,16.08
2017-05-16T15:56:55.671Z,17.42
2017-05-16T15:59:24.008Z,16.73
2017-05-16T16:01:52.416Z,15.02
2017-05-16T16:04:20.655Z,16.83
2017-05-16T16:06:48.900Z,15.58
2017-05-16T16:09:17.185Z,16.73
2017-05-16T16:11:45.455Z,15.23
2017-05-16T16:14:13.684Z,18.72
2017-05-16T16:16:41.924Z,23.64
2017-05-16T16:19:10.152Z,17.05
2017-05-16T16:21:38.410Z,16.42
2017-05-16T16:24:06.789Z,15.88
2017-05-16T16:26:35.187Z,16.02
2017-05-16T16:29:03.427Z,16.43
2017-05-16T16:31:32.424Z,16.93
2017-05-16T16:34:01.709Z,16.50
2017-05-16T16:36:29.944Z,17.08
2017-05-16T16:38:58.290Z,16.63
2017-05-16T16:41:26.576Z,16.14
2017-05-16T16:43:54.841Z,16.38
2017-05-16T16:46:23.117Z,17.08
2017-05-16T16:48:51.377Z,16.93
2017-05-16T16:51:20.440Z,16.03
2017-05-16T16:53:48.668Z,15.70
2017-05-16T16:56:16.908Z,16.28
2017-05-16T16:58:45.206Z,14.88
2017-05-16T17:01:14.180Z,17.90
2017-05-16T17:03:43.199Z,16.60
2017-05-16T17:06:11.456Z,16.55
2017-05-16T17:08:40.456Z,17.12
2017-05-16T17:11:09.453Z,15.57
2017-05-16T17:13:37.701Z,17.88
2017-05-16T17:16:06.116Z,17.85
2017-05-16T17:18:34.397Z,16.82
2017-05-16T17:21:02.665Z,17.10
2017-05-16T17:23:31.047Z,16.10
2017-05-16T17:25:59.305Z,16.90
2017-05-16T17:28:27.635Z,16.48
2017-05-16T17:30:55.875Z,17.52
2017-05-16T17:33:24.109Z,17.32
2017-05-16T17:35:52.403Z,17.10
2017-05-16T17:38:21.395Z,17.77
2017-05-16T17:40:50.541Z,18.62
2017-05-16T17:43:18.842Z,17.68
2017-05-16T17:45:47.193Z,19.37
2017-05-16T17:48:15.520Z,17.87
2017-05-16T17:50:43.786Z,18.33
2017-05-16T17:53:12.834Z,18.10
2017-05-16T17:55:41.165Z,16.92
2017-05-16T17:58:10.159Z,15.83
2017-05-16T18:00:39.252Z,17.25
2017-05-16T18:03:08.245Z,17.17
2017-05-16T18:05:37.272Z,17.83
2017-05-16T18:08:05.559Z,18.85
2017-05-16T18:10:33.836Z,18.42
2017-05-16T18:13:02.210Z,18.08
2017-05-16T18:15:30.500Z,17.87
2017-05-16T18:17:58.839Z,18.57
2017-05-16T18:20:27.097Z,19.92
2017-05-16T18:22:55.351Z,18.02
2017-05-16T18:25:24.372Z,18.47
2017-05-16T18:27:52.600Z,18.17
2017-05-16T18:30:20.962Z,19.27
2017-05-16T18:32:49.310Z,20.37
2017-05-16T18:35:17.563Z,20.57
2017-05-16T18:37:46.560Z,19.72
2017-05-16T18:40:15.559Z,20.58
2017-05-16T18:42:43.807Z,19.88
2017-05-16T18:45:12.116Z,19.50
2017-05-16T18:47:40.347Z,20.08
2017-05-16T18:50:08.651Z,20.35
2017-05-16T18:52:38.429Z,20.43
2017-05-16T18:55:06.682Z,20.07
2017-05-16T18:57:35.026Z,20.27
2017-05-16T19:00:03.273Z,20.62
2017-05-16T19:02:31.604Z,18.85
2017-05-16T19:04:59.956Z,18.60
2017-05-16T19:07:28.195Z,19.48
2017-05-16T19:09:56.486Z,20.00
2017-05-16T19:12:25.733Z,19.35
2017-05-16T19:14:54.072Z,19.88
2017-05-16T19:17:22.471Z,19.17
2017-05-16T19:19:50.735Z,18.72
2017-05-16T19:22:19.041Z,20.35
2017-05-16T19:24:47.399Z,19.10
2017-05-16T19:27:15.677Z,20.17
2017-05-16T19:29:43.985Z,20.20
2017-05-16T19:32:12.232Z,18.80
2017-05-16T19:34:40.627Z,19.33
2017-05-16T19:37:08.960Z,19.18
2017-05-16T19:39:37.341Z,18.88
2017-05-16T19:42:05.639Z,18.85
2017-05-16T19:44:33.884Z,19.40
2017-05-16T19:47:02.895Z,20.52
2017-05-16T19:49:31.154Z,20.13
2017-05-16T19:52:00.241Z,19.72
2017-05-16T19:54:29.221Z,18.70
2017-05-16T19:56:57.461Z,19.82
2017-05-16T19:59:25.701Z,19.77
2017-05-16T20:01:53.933Z,18.95
2017-05-16T20:04:22.197Z,20.28
2017-05-16T20:06:50.486Z,18.77
2017-05-16T20:09:18.900Z,19.12
2017-05-16T20:11:47.137Z,21.05
2017-05-16T20:14:15.382Z,19.57
2017-05-16T20:16:43.762Z,21.76
2017-05-16T20:19:12.092Z,20.65
2017-05-16T20:21:41.068Z,21.87
2017-05-16T20:24:09.308Z,21.03
2017-05-16T20:26:37.558Z,22.90
2017-05-16T20:29:05.839Z,20.57
2017-05-16T20:31:34.092Z,20.07
2017-05-16T20:34:02.384Z,21.95
2017-05-16T20:36:30.651Z,20.93
2017-05-16T20:38:58.961Z,20.52
2017-05-16T20:41:27.250Z,20.78
2017-05-16T20:43:55.613Z,20.73
2017-05-16T20:46:23.841Z,21.43
2017-05-16T20:48:52.859Z,21.20
2017-05-16T20:51:21.220Z,19.72
2017-05-16T20:53:49.504Z,22.27
2017-05-16T20:56:17.849Z,21.30
2017-05-16T20:58:46.152Z,20.95
2017-05-16T21:01:14.388Z,21.18
2017-05-16T21:03:42.627Z,21.32
2017-05-16T21:06:11.607Z,22.97
2017-05-16T21:08:39.949Z,22.36
2017-05-16T21:11:08.180Z,22.12
2017-05-16T21:13:36.471Z,22.37
2017-05-16T21:16:04.729Z,22.90
2017-05-16T21:18:33.825Z,24.38
2017-05-16T21:21:02.222Z,25.23
2017-05-16T21:23:30.475Z,25.13
2017-05-16T21:25:59.601Z,23.68
2017-05-16T21:28:27.966Z,26.37
2017-05-16T21:30:56.208Z,23.92
2017-05-16T21:33:25.213Z,23.27
2017-05-16T21:35:53.475Z,25.23
2017-05-16T21:38:21.752Z,24.54
2017-05-16T21:40:50.795Z,25.97
2017-05-16T21:43:19.143Z,26.25
2017-05-16T21:45:47.432Z,23.90
2017-05-16T21:48:15.723Z,24.95
2017-05-16T21:50:43.961Z,26.67
2017-05-16T21:53:12.382Z,27.15
2017-05-16T21:55:40.823Z,27.35
2017-05-16T21:58:09.813Z,26.50
2017-05-16T22:00:38.054Z,26.20
2017-05-16T22:03:06.339Z,24.47
2017-05-16T22:05:34.592Z,25.14
2017-05-16T22:08:02.828Z,23.83
2017-05-16T22:10:31.161Z,23.90
2017-05-16T22:12:59.391Z,24.53
2017-05-16T22:15:27.640Z,24.87
2017-05-16T22:17:55.884Z,24.98
2017-05-16T22:20:24.201Z,24.63
2017-05-16T22:22:52.460Z,23.88
2017-05-16T22:25:21.529Z,24.75
2017-05-16T22:27:49.851Z,25.50
2017-05-16T22:30:18.090Z,23.02
2017-05-16T22:32:46.494Z,22.77
2017-05-16T22:35:14.879Z,23.52
2017-05-16T22:37:43.100Z,22.58
2017-05-16T22:40:11.344Z,22.33
2017-05-16T22:42:39.701Z,22.30
2017-05-16T22:45:07.975Z,21.60
2017-05-16T22:47:36.244Z,21.77
2017-05-16T22:50:04.512Z,22.30
2017-05-16T22:52:33.487Z,22.40
2017-05-16T22:55:01.734Z,21.72
2017-05-16T22:57:30.060Z,22.00
2017-05-16T22:59:59.151Z,22.00
2017-05-16T23:02:28.132Z,21.12
2017-05-16T23:04:57.139Z,20.50
2017-05-16T23:07:26.124Z,19.98
2017-05-16T23:09:55.120Z,20.62
2017-05-16T23:12:24.122Z,20.80
2017-05-16T23:14:52.348Z,20.25
2017-05-16T23:17:20.572Z,20.30
2017-05-16T23:19:48.848Z,19.82
2017-05-16T23:22:17.165Z,18.60
2017-05-16T23:24:45.432Z,20.20
2017-05-16T23:27:13.665Z,19.64
2017-05-16T23:29:42.635Z,20.00
2017-05-16T23:32:10.883Z,19.35
2017-05-16T23:34:39.108Z,19.42
2017-05-16T23:37:08.204Z,19.25
2017-05-16T23:39:36.432Z,18.52
2017-05-16T23:42:04.680Z,18.98
2017-05-16T23:44:33.028Z,18.02
2017-05-16T23:47:01.993Z,18.02
2017-05-16T23:49:30.292Z,18.60
2017-05-16T23:51:59.332Z,17.82
2017-05-16T23:54:27.668Z,19.08
2017-05-16T23:56:55.955Z,18.52
2017-05-16T23:59:24.187Z,17.83
